Time;durP1;ratioP1;P1;durP2;ratioP2;P2;SDS_P1;SDS_P2;PMS_P1;PMS_P2;Temp;Humidity;BMP_temperature;BMP_pressure;BME280_temperature;BME280_humidity;BME280_pressure;Samples;Min_cycle;Max_cycle;Signal;HPM_P1;HPM_P2
2023/05/03 00:00:32;;;;;;;7.28;1.83;;;5.60;99.90;;;;;;5052852;28;20071;-76
2023/05/03 00:02:57;;;;;;;3.67;1.55;;;5.50;99.90;;;;;;5052671;28;20521;-76
2023/05/03 00:05:25;;;;;;;2.65;1.60;;;5.50;99.90;;;;;;5068859;28;20503;-77
2023/05/03 00:07:51;;;;;;;3.60;1.63;;;5.40;99.90;;;;;;5069845;28;20056;-76
2023/05/03 00:10:16;;;;;;;3.90;1.80;;;5.30;99.90;;;;;;5052312;28;20162;-74
2023/05/03 00:12:43;;;;;;;5.65;1.70;;;5.30;99.90;;;;;;5052568;28;20235;-74
2023/05/03 00:15:09;;;;;;;4.10;1.67;;;5.20;99.90;;;;;;5052836;28;20032;-74
2023/05/03 00:17:36;;;;;;;2.70;1.70;;;5.10;99.90;;;;;;5052879;28;20055;-75
2023/05/03 00:20:03;;;;;;;5.07;1.60;;;5.10;99.90;;;;;;5057271;28;20036;-75
2023/05/03 00:22:29;;;;;;;4.07;1.38;;;5.00;99.90;;;;;;5052579;28;20044;-74
2023/05/03 00:24:55;;;;;;;4.18;1.58;;;5.00;99.90;;;;;;5046949;28;20090;-74
2023/05/03 00:27:22;;;;;;;3.70;1.67;;;4.90;99.90;;;;;;5044355;28;20076;-74
2023/05/03 00:29:50;;;;;;;3.78;1.80;;;4.90;99.90;;;;;;5031491;28;20048;-74
2023/05/03 00:32:15;;;;;;;7.28;1.83;;;4.80;99.90;;;;;;5044758;28;20040;-74
2023/05/03 00:34:41;;;;;;;2.63;1.58;;;4.80;99.90;;;;;;5030568;28;20049;-76
2023/05/03 00:37:08;;;;;;;6.28;2.40;;;4.80;99.90;;;;;;5046249;28;20071;-74
2023/05/03 00:39:34;;;;;;;4.60;2.03;;;4.70;99.90;;;;;;5051129;28;20043;-75
2023/05/03 00:42:02;;;;;;;3.78;1.63;;;4.70;99.90;;;;;;5045977;28;20033;-76
2023/05/03 00:44:29;;;;;;;4.28;1.95;;;4.70;99.90;;;;;;5044215;28;20128;-75
2023/05/03 00:46:55;;;;;;;4.35;2.00;;;4.60;99.90;;;;;;5047931;28;20060;-74
2023/05/03 00:49:24;;;;;;;2.42;1.70;;;4.60;99.90;;;;;;5052346;28;20051;-74
2023/05/03 00:51:52;;;;;;;3.72;1.90;;;4.60;99.90;;;;;;5067372;28;20105;-75
2023/05/03 00:54:17;;;;;;;3.65;1.83;;;4.60;99.90;;;;;;5052503;28;20043;-74
2023/05/03 00:56:43;;;;;;;3.88;1.65;;;4.60;99.90;;;;;;5051760;28;20120;-74
2023/05/03 00:59:10;;;;;;;3.03;1.90;;;4.60;99.90;;;;;;5058661;28;20032;-74
2023/05/03 01:01:36;;;;;;;4.88;2.00;;;4.50;99.90;;;;;;5068581;28;20435;-74
2023/05/03 01:04:03;;;;;;;5.10;2.15;;;4.60;99.90;;;;;;5052160;28;20059;-74
2023/05/03 01:06:56;;;;;;;3.25;1.60;;;4.50;99.90;;;;;;5046849;28;20045;-74
2023/05/03 01:09:36;;;;;;;;;;;4.50;99.90;;;;;;5045393;28;20041;-74
2023/05/03 01:12:11;;;;;;;4.68;1.70;;;4.50;99.90;;;;;;5068123;28;19916;-74
2023/05/03 01:15:06;;;;;;;3.70;1.90;;;4.40;99.90;;;;;;5049917;28;20344;-74
2023/05/03 01:17:38;;;;;;;7.15;2.20;;;4.40;99.90;;;;;;5051385;28;20051;-75
2023/05/03 01:20:12;;;;;;;4.57;1.98;;;4.40;99.90;;;;;;5055215;28;20045;-74
2023/05/03 01:22:56;;;;;;;4.50;2.10;;;4.40;99.90;;;;;;5052910;28;20123;-74
2023/05/03 01:25:22;;;;;;;3.40;2.03;;;4.40;99.90;;;;;;5061889;28;20567;-74
2023/05/03 01:27:47;;;;;;;6.65;2.38;;;4.40;99.90;;;;;;5054572;28;20131;-74
2023/05/03 01:30:13;;;;;;;4.00;2.00;;;4.40;99.90;;;;;;5072444;28;20050;-76
2023/05/03 01:33:11;;;;;;;7.15;2.40;;;4.40;99.90;;;;;;5055162;28;20115;-75
2023/05/03 01:35:48;;;;;;;5.38;2.15;;;4.30;99.90;;;;;;5070898;28;20051;-75
2023/05/03 01:38:16;;;;;;;4.35;2.33;;;4.30;99.90;;;;;;5055393;28;20040;-74
2023/05/03 01:40:47;;;;;;;3.63;1.95;;;4.30;99.90;;;;;;5053327;28;20045;-74
2023/05/03 01:43:15;;;;;;;5.03;2.28;;;4.30;99.90;;;;;;5055324;28;20028;-75
2023/05/03 01:45:41;;;;;;;4.25;2.20;;;4.30;99.90;;;;;;5055460;28;20460;-74
2023/05/03 01:48:13;;;;;;;5.32;2.28;;;4.20;99.90;;;;;;5061992;28;20111;-74
2023/05/03 01:50:39;;;;;;;6.78;2.47;;;4.20;99.90;;;;;;5045780;28;20028;-74
2023/05/03 01:53:04;;;;;;;4.03;2.20;;;4.20;99.90;;;;;;5055081;28;20446;-74
2023/05/03 01:55:30;;;;;;;3.03;2.15;;;4.20;99.90;;;;;;5054925;28;20044;-74
2023/05/03 01:57:55;;;;;;;2.83;1.98;;;4.20;99.90;;;;;;5051681;28;20132;-74
2023/05/03 02:00:21;;;;;;;7.38;2.42;;;4.10;99.90;;;;;;5049641;28;20071;-74
2023/05/03 02:02:47;;;;;;;4.45;2.20;;;4.10;99.90;;;;;;5054613;28;20066;-74
2023/05/03 02:05:12;;;;;;;6.07;2.08;;;4.00;99.90;;;;;;5054900;28;20040;-75
2023/05/03 02:07:38;;;;;;;6.53;2.00;;;4.00;99.90;;;;;;5037776;28;20079;-76
2023/05/03 02:10:05;;;;;;;4.50;2.15;;;4.00;99.90;;;;;;5054237;28;20554;-74
2023/05/03 02:12:30;;;;;;;7.80;2.58;;;4.00;99.90;;;;;;5054357;28;20044;-75
2023/05/03 02:14:56;;;;;;;3.08;2.08;;;4.00;99.90;;;;;;5054788;28;20050;-74
2023/05/03 02:17:25;;;;;;;5.20;2.17;;;4.00;99.90;;;;;;5055643;28;20079;-74
2023/05/03 02:19:51;;;;;;;4.03;2.10;;;4.00;99.90;;;;;;5053690;28;20407;-76
2023/05/03 02:22:16;;;;;;;3.22;2.10;;;4.00;99.90;;;;;;5054609;28;20404;-76
2023/05/03 02:24:42;;;;;;;3.83;2.15;;;3.90;99.90;;;;;;5053482;28;20044;-74
2023/05/03 02:27:08;;;;;;;7.47;2.72;;;3.90;99.90;;;;;;5053523;28;20036;-74
2023/05/03 02:29:33;;;;;;;3.90;2.60;;;3.90;99.90;;;;;;5054287;28;20032;-74
2023/05/03 02:31:59;;;;;;;5.63;2.50;;;3.90;99.90;;;;;;5053017;28;20032;-78
2023/05/03 02:34:26;;;;;;;6.65;2.17;;;3.90;99.90;;;;;;5052958;28;20052;-74
2023/05/03 02:36:51;;;;;;;3.75;2.35;;;3.90;99.90;;;;;;5051180;28;20404;-74
2023/05/03 02:39:17;;;;;;;5.40;2.40;;;3.90;99.90;;;;;;5049147;28;20045;-75
2023/05/03 02:41:42;;;;;;;4.43;2.30;;;3.90;99.90;;;;;;5050672;28;20028;-74
2023/05/03 02:44:08;;;;;;;6.75;2.10;;;3.80;99.90;;;;;;5051004;28;20040;-73
2023/05/03 02:46:34;;;;;;;3.92;2.17;;;3.80;99.90;;;;;;5071812;28;20040;-74
2023/05/03 02:48:59;;;;;;;3.45;1.98;;;3.80;99.90;;;;;;5052468;28;20047;-74
2023/05/03 02:51:25;;;;;;;3.28;2.13;;;3.80;99.90;;;;;;5048865;28;20090;-74
2023/05/03 02:53:51;;;;;;;4.20;1.92;;;3.80;99.90;;;;;;5052323;28;20059;-73
2023/05/03 02:56:16;;;;;;;5.55;2.28;;;3.80;99.90;;;;;;5049936;28;20551;-73
2023/05/03 02:58:42;;;;;;;4.72;2.10;;;3.80;99.90;;;;;;5053400;28;20485;-73
2023/05/03 03:01:08;;;;;;;4.13;2.20;;;3.80;99.90;;;;;;5050899;28;20143;-74
2023/05/03 03:03:33;;;;;;;3.92;2.00;;;3.90;99.90;;;;;;5051959;28;20089;-74
2023/05/03 03:05:59;;;;;;;4.13;2.38;;;3.80;99.90;;;;;;5051442;28;20480;-74
2023/05/03 03:08:24;;;;;;;5.70;2.30;;;3.80;99.90;;;;;;5043522;28;20521;-74
2023/05/03 03:10:50;;;;;;;5.78;2.28;;;3.90;99.90;;;;;;5050506;28;20060;-73
2023/05/03 03:13:16;;;;;;;3.38;2.10;;;3.90;99.90;;;;;;5049734;28;20109;-73
2023/05/03 03:15:41;;;;;;;3.28;2.10;;;3.90;99.90;;;;;;5053396;28;20049;-74
2023/05/03 03:18:07;;;;;;;4.22;2.30;;;3.90;99.90;;;;;;5052972;28;20040;-74
2023/05/03 03:20:32;;;;;;;5.80;2.70;;;3.80;99.90;;;;;;5050638;28;20154;-76
2023/05/03 03:22:58;;;;;;;5.38;2.28;;;3.80;99.90;;;;;;5053571;28;20290;-74
2023/05/03 03:25:23;;;;;;;4.68;2.20;;;3.80;99.90;;;;;;5052773;28;20044;-74
2023/05/03 03:27:49;;;;;;;5.95;2.28;;;3.80;99.90;;;;;;5053619;28;20052;-74
2023/05/03 03:30:15;;;;;;;6.50;2.53;;;3.80;99.90;;;;;;5043564;28;20036;-76
2023/05/03 03:32:41;;;;;;;3.35;2.20;;;3.80;99.90;;;;;;5051322;28;20048;-74
2023/05/03 03:35:08;;;;;;;5.50;2.50;;;3.80;99.90;;;;;;5052631;28;20040;-74
2023/05/03 03:37:34;;;;;;;3.55;2.30;;;3.80;99.90;;;;;;5046650;28;20052;-74
2023/05/03 03:39:59;;;;;;;8.00;2.50;;;3.70;99.90;;;;;;5073726;28;20036;-74
2023/05/03 03:42:25;;;;;;;4.55;2.47;;;3.70;99.90;;;;;;5069675;28;20036;-75
2023/05/03 03:44:51;;;;;;;11.77;3.03;;;3.60;99.90;;;;;;5050613;28;20106;-74
2023/05/03 03:47:16;;;;;;;7.13;2.60;;;3.60;99.90;;;;;;5049131;28;20091;-74
2023/05/03 03:49:42;;;;;;;6.30;2.60;;;3.50;99.90;;;;;;5046340;28;20469;-74
2023/05/03 03:52:07;;;;;;;4.75;2.28;;;3.50;99.90;;;;;;5049119;28;20098;-76
2023/05/03 03:54:36;;;;;;;7.13;2.20;;;3.50;99.90;;;;;;5046241;28;20051;-74
2023/05/03 03:57:04;;;;;;;5.85;2.65;;;3.50;99.90;;;;;;5051797;28;20456;-74
2023/05/03 03:59:30;;;;;;;5.82;2.80;;;3.50;99.90;;;;;;5050282;28;20079;-76
2023/05/03 04:01:55;;;;;;;5.55;2.65;;;3.50;99.90;;;;;;5052059;28;20488;-74
2023/05/03 04:04:21;;;;;;;4.70;2.60;;;3.50;99.90;;;;;;5046675;28;20051;-74
2023/05/03 04:06:46;;;;;;;5.60;2.80;;;3.50;99.90;;;;;;5050169;28;20542;-74
2023/05/03 04:09:12;;;;;;;6.78;2.80;;;3.50;99.90;;;;;;5053224;28;20408;-76
2023/05/03 04:11:38;;;;;;;4.93;2.45;;;3.50;99.90;;;;;;5066201;28;20492;-74
2023/05/03 04:14:04;;;;;;;6.20;2.35;;;3.50;99.90;;;;;;5052094;28;20119;-77
2023/05/03 04:16:29;;;;;;;5.72;2.78;;;3.40;99.90;;;;;;5056374;28;20480;-74
2023/05/03 04:18:55;;;;;;;5.93;2.83;;;3.40;99.90;;;;;;5051985;28;20040;-74
2023/05/03 04:21:20;;;;;;;4.47;2.40;;;3.40;99.90;;;;;;5051051;28;20040;-75
2023/05/03 04:23:46;;;;;;;7.30;3.05;;;3.40;99.90;;;;;;5052482;28;20072;-75
2023/05/03 04:26:11;;;;;;;6.70;2.78;;;3.30;99.90;;;;;;5052025;28;20036;-76
2023/05/03 04:28:38;;;;;;;8.50;3.13;;;3.30;99.90;;;;;;5058177;28;20050;-75
2023/05/03 04:31:04;;;;;;;6.38;2.90;;;3.30;99.90;;;;;;5036021;28;20476;-75
2023/05/03 04:33:30;;;;;;;7.88;3.17;;;3.30;99.90;;;;;;5053196;28;20051;-75
2023/05/03 04:35:56;;;;;;;6.28;3.17;;;3.20;99.90;;;;;;5052283;28;20516;-75
2023/05/03 04:38:22;;;;;;;4.88;2.88;;;3.20;99.90;;;;;;5049510;28;20048;-75
2023/05/03 04:40:48;;;;;;;5.95;2.58;;;3.20;99.90;;;;;;5044750;28;20036;-75
2023/05/03 04:43:13;;;;;;;4.03;2.65;;;3.20;99.90;;;;;;5052312;28;20037;-75
2023/05/03 04:45:40;;;;;;;8.95;2.50;;;3.20;99.90;;;;;;5049498;28;20040;-77
2023/05/03 04:48:06;;;;;;;6.10;3.08;;;3.20;99.90;;;;;;5048960;28;20086;-75
2023/05/03 04:50:32;;;;;;;5.32;2.85;;;3.10;99.90;;;;;;5071027;28;20040;-76
2023/05/03 04:52:58;;;;;;;4.60;2.60;;;3.10;99.90;;;;;;5056505;28;20407;-75
2023/05/03 04:55:27;;;;;;;7.22;3.03;;;3.10;99.90;;;;;;5056248;28;20537;-76
2023/05/03 04:57:53;;;;;;;6.70;2.70;;;3.20;99.90;;;;;;5050788;28;20063;-75
2023/05/03 05:00:21;;;;;;;4.60;2.63;;;3.00;99.90;;;;;;5054666;28;20036;-75
2023/05/03 05:02:47;;;;;;;4.65;2.90;;;3.10;99.90;;;;;;5052564;28;20040;-75
2023/05/03 05:05:12;;;;;;;6.95;3.20;;;3.10;99.90;;;;;;5063165;28;20086;-76
2023/05/03 05:07:38;;;;;;;9.43;3.55;;;3.10;99.90;;;;;;5054726;28;20040;-78
2023/05/03 05:10:04;;;;;;;5.05;2.92;;;3.10;99.90;;;;;;5055625;28;20043;-75
2023/05/03 05:12:30;;;;;;;5.53;3.00;;;3.10;99.90;;;;;;5049319;28;20071;-75
2023/05/03 05:14:56;;;;;;;7.28;3.03;;;3.10;99.90;;;;;;5054099;28;20041;-75
2023/05/03 05:17:22;;;;;;;8.73;3.03;;;3.10;99.90;;;;;;5055041;28;20117;-75
2023/05/03 05:19:47;;;;;;;6.63;3.00;;;3.20;99.90;;;;;;5055730;28;20044;-75
2023/05/03 05:22:13;;;;;;;9.68;3.25;;;3.20;99.90;;;;;;5038284;28;20028;-75
2023/05/03 05:24:38;;;;;;;6.75;2.88;;;3.20;99.90;;;;;;5055746;28;20044;-75
2023/05/03 05:27:05;;;;;;;6.93;3.22;;;3.20;99.90;;;;;;5055936;28;20047;-75
2023/05/03 05:29:31;;;;;;;5.03;2.90;;;3.30;99.90;;;;;;5055418;28;20048;-76
2023/05/03 05:31:58;;;;;;;6.70;3.42;;;3.20;99.90;;;;;;5046397;28;20038;-75
2023/05/03 05:34:24;;;;;;;4.80;2.78;;;3.30;99.90;;;;;;5055252;28;20089;-75
2023/05/03 05:36:51;;;;;;;9.52;3.08;;;3.40;99.90;;;;;;5049778;28;20045;-75
2023/05/03 05:39:16;;;;;;;7.18;3.00;;;3.40;99.90;;;;;;5067183;28;20153;-75
2023/05/03 05:41:42;;;;;;;6.03;3.13;;;3.50;99.90;;;;;;5111233;22;20131;-75
2023/05/03 05:44:07;;;;;;;5.70;3.20;;;3.50;99.90;;;;;;5070560;28;20040;-75
2023/05/03 05:46:33;;;;;;;6.35;3.63;;;3.60;99.90;;;;;;5069796;28;20123;-76
2023/05/03 05:48:58;;;;;;;8.35;3.63;;;3.60;99.90;;;;;;5074041;28;20068;-75
2023/05/03 05:51:24;;;;;;;8.43;3.40;;;3.70;99.90;;;;;;5069867;28;20040;-75
2023/05/03 05:53:50;;;;;;;7.07;3.83;;;3.80;99.90;;;;;;5069349;28;20396;-75
2023/05/03 05:56:15;;;;;;;7.70;3.67;;;3.80;99.90;;;;;;5068217;28;20044;-76
2023/05/03 05:58:41;;;;;;;8.48;3.72;;;3.90;99.90;;;;;;5071980;28;20063;-73
2023/05/03 06:01:07;;;;;;;7.18;3.55;;;4.00;99.90;;;;;;5074629;28;20118;-74
2023/05/03 06:03:33;;;;;;;9.57;3.80;;;4.10;99.90;;;;;;5089681;28;20499;-74
2023/05/03 06:05:58;;;;;;;10.70;4.20;;;4.20;99.90;;;;;;5076816;28;20039;-74
2023/05/03 06:08:24;;;;;;;6.88;4.22;;;4.30;99.90;;;;;;5077172;28;20753;-74
2023/05/03 06:10:51;;;;;;;7.20;4.18;;;4.40;99.90;;;;;;5069855;28;20502;-74
2023/05/03 06:13:17;;;;;;;7.93;4.07;;;4.50;99.90;;;;;;5057250;28;20086;-74
2023/05/03 06:15:43;;;;;;;8.05;4.15;;;4.60;99.90;;;;;;5074530;28;20067;-74
2023/05/03 06:18:09;;;;;;;8.77;3.72;;;4.80;99.90;;;;;;5065230;28;20564;-74
2023/05/03 06:20:34;;;;;;;8.32;3.85;;;4.90;99.90;;;;;;5057150;28;20047;-74
2023/05/03 06:23:00;;;;;;;7.20;3.70;;;5.00;99.90;;;;;;5066679;28;20555;-74
2023/05/03 06:25:26;;;;;;;5.43;3.55;;;5.20;99.90;;;;;;5071686;28;20299;-74
2023/05/03 06:27:51;;;;;;;7.05;3.22;;;5.40;99.90;;;;;;5072839;28;20089;-73
2023/05/03 06:30:17;;;;;;;6.90;3.33;;;5.50;99.90;;;;;;5067666;28;20032;-73
2023/05/03 06:32:42;;;;;;;6.70;3.22;;;5.70;99.90;;;;;;5070412;28;20134;-74
2023/05/03 06:35:08;;;;;;;6.72;2.90;;;5.80;99.90;;;;;;5074136;28;20040;-74
2023/05/03 06:37:35;;;;;;;6.03;2.80;;;5.90;99.90;;;;;;5092453;28;20055;-73
2023/05/03 06:40:01;;;;;;;5.72;2.83;;;6.10;99.90;;;;;;5069441;28;20098;-73
2023/05/03 06:42:26;;;;;;;6.68;2.80;;;6.10;99.90;;;;;;5056457;28;20488;-73
2023/05/03 06:44:52;;;;;;;6.05;2.80;;;6.20;99.90;;;;;;5070113;28;20085;-73
2023/05/03 06:47:19;;;;;;;12.52;3.03;;;6.30;99.90;;;;;;5090354;28;20081;-73
2023/05/03 06:49:45;;;;;;;144.95;16.10;;;6.40;99.90;;;;;;5072070;28;20044;-73
2023/05/03 06:52:10;;;;;;;47.30;7.72;;;6.40;99.90;;;;;;5068594;28;20051;-73
2023/05/03 06:54:36;;;;;;;26.02;4.70;;;6.60;99.90;;;;;;5070715;28;20036;-73
2023/05/03 06:57:03;;;;;;;19.17;4.68;;;6.70;99.90;;;;;;5064747;28;20127;-73
2023/05/03 06:59:29;;;;;;;8.45;3.67;;;6.80;99.90;;;;;;5061531;28;20306;-73
2023/05/03 07:01:55;;;;;;;8.00;3.30;;;6.90;99.90;;;;;;5070565;28;20119;-73
2023/05/03 07:04:20;;;;;;;485.63;46.20;;;7.00;99.90;;;;;;5073328;28;20040;-73
2023/05/03 07:06:46;;;;;;;176.38;21.05;;;7.10;99.90;;;;;;5067636;28;20044;-73
2023/05/03 07:09:11;;;;;;;39.05;7.20;;;7.10;99.90;;;;;;5069960;28;20036;-73
2023/05/03 07:11:39;;;;;;;14.70;4.13;;;7.20;99.90;;;;;;5071696;28;20040;-73
2023/05/03 07:14:04;;;;;;;13.43;3.22;;;7.30;99.90;;;;;;5064753;28;20044;-73
2023/05/03 07:16:30;;;;;;;9.13;3.25;;;7.40;99.90;;;;;;5071827;28;20043;-73
2023/05/03 07:18:55;;;;;;;7.65;3.13;;;7.50;99.90;;;;;;5071804;28;20561;-73
2023/05/03 07:21:21;;;;;;;10.82;3.15;;;7.60;99.90;;;;;;5059649;28;20032;-74
2023/05/03 07:23:46;;;;;;;4.63;2.85;;;7.60;99.90;;;;;;5082164;28;20046;-73
2023/05/03 07:26:12;;;;;;;6.22;2.47;;;7.70;99.90;;;;;;5066766;28;20033;-74
2023/05/03 07:28:38;;;;;;;6.30;2.25;;;7.80;99.90;;;;;;5078501;28;20063;-74
2023/05/03 07:31:03;;;;;;;4.10;2.50;;;7.80;99.90;;;;;;5078096;28;20029;-74
2023/05/03 07:33:30;;;;;;;6.47;2.30;;;7.90;99.90;;;;;;5066201;28;20035;-74
2023/05/03 07:35:56;;;;;;;6.80;2.47;;;7.90;99.90;;;;;;5075778;28;20495;-74
2023/05/03 07:38:21;;;;;;;11.30;2.00;;;8.00;99.90;;;;;;5066884;28;20059;-73
2023/05/03 07:40:47;;;;;;;4.00;1.90;;;8.00;99.90;;;;;;5059566;28;20059;-73
2023/05/03 07:43:15;;;;;;;5.30;2.13;;;8.00;99.90;;;;;;5060565;28;20055;-73
2023/05/03 07:45:40;;;;;;;32.70;5.18;;;8.10;99.90;;;;;;5066414;28;20432;-73
2023/05/03 07:48:06;;;;;;;37.70;6.10;;;8.10;99.90;;;;;;5052460;28;20039;-73
2023/05/03 07:50:32;;;;;;;14.27;3.30;;;8.10;99.90;;;;;;5063673;28;20036;-74
2023/05/03 07:52:57;;;;;;;10.43;2.80;;;8.10;99.90;;;;;;5065198;28;20063;-73
2023/05/03 07:55:24;;;;;;;4.85;2.00;;;8.30;99.90;;;;;;5067578;28;20457;-73
2023/05/03 07:57:50;;;;;;;3.03;1.98;;;8.10;99.90;;;;;;5068864;28;20036;-73
2023/05/03 08:00:17;;;;;;;4.72;1.85;;;8.10;99.90;;;;;;5091020;28;20043;-73
2023/05/03 08:02:42;;;;;;;6.63;1.92;;;8.10;99.90;;;;;;5069444;28;20154;-74
2023/05/03 08:05:09;;;;;;;5.95;2.00;;;8.20;99.90;;;;;;5066565;28;20127;-74
2023/05/03 08:07:35;;;;;;;4.85;2.00;;;8.20;99.90;;;;;;5070419;28;20044;-73
2023/05/03 08:10:01;;;;;;;4.03;2.20;;;8.20;99.90;;;;;;5053677;28;20034;-73
2023/05/03 08:12:27;;;;;;;5.28;1.90;;;8.30;99.90;;;;;;5086882;28;20035;-74
2023/05/03 08:14:56;;;;;;;6.07;2.08;;;8.40;99.90;;;;;;5070520;28;20077;-73
2023/05/03 08:17:22;;;;;;;10.40;2.40;;;8.50;99.90;;;;;;5084303;28;20040;-73
2023/05/03 08:19:48;;;;;;;6.97;2.33;;;8.60;99.90;;;;;;5072227;28;20056;-73
2023/05/03 08:22:15;;;;;;;5.20;1.90;;;8.60;99.90;;;;;;5073076;28;20028;-73
2023/05/03 08:24:41;;;;;;;6.32;2.30;;;8.80;99.90;;;;;;5073981;28;20503;-73
2023/05/03 08:27:08;;;;;;;4.95;2.13;;;9.00;99.90;;;;;;5071255;28;20074;-73
2023/05/03 08:29:36;;;;;;;4.25;2.22;;;9.10;99.90;;;;;;5071309;28;20492;-73
2023/05/03 08:32:03;;;;;;;27.25;4.03;;;9.30;99.90;;;;;;5089513;28;20077;-73
2023/05/03 08:34:28;;;;;;;29.50;4.30;;;9.30;99.90;;;;;;5075749;28;20470;-73
2023/05/03 08:36:54;;;;;;;35.35;5.40;;;9.50;99.90;;;;;;5068703;28;20138;-73
2023/05/03 08:39:20;;;;;;;29.35;5.28;;;9.60;99.90;;;;;;5070201;28;20044;-73
2023/05/03 08:41:46;;;;;;;10.93;3.15;;;9.70;99.90;;;;;;5072426;28;20040;-73
2023/05/03 08:44:21;;;;;;;3.50;2.10;;;10.00;99.90;;;;;;5072585;28;20044;-73
2023/05/03 08:46:46;;;;;;;7.43;2.60;;;10.30;99.90;;;;;;5068319;28;20492;-73
2023/05/03 08:49:13;;;;;;;7.40;2.35;;;10.70;99.90;;;;;;5084418;28;20051;-73
2023/05/03 08:51:40;;;;;;;15.48;3.03;;;11.10;99.90;;;;;;5089050;28;20067;-73
2023/05/03 08:54:07;;;;;;;18.55;3.67;;;11.50;99.90;;;;;;5071628;28;20096;-73
2023/05/03 08:56:41;;;;;;;8.45;2.28;;;11.80;99.90;;;;;;5074460;28;20063;-73
2023/05/03 08:59:07;;;;;;;17.25;3.08;;;12.10;99.90;;;;;;5094057;28;20028;-73
2023/05/03 09:01:38;;;;;;;10.82;2.20;;;12.30;99.90;;;;;;5074051;28;20075;-73
2023/05/03 09:04:04;;;;;;;11.23;2.45;;;12.50;99.90;;;;;;5072928;28;20040;-73
2023/05/03 09:06:32;;;;;;;41.88;4.85;;;12.80;99.90;;;;;;5064842;28;20036;-73
2023/05/03 09:08:58;;;;;;;26.58;3.85;;;13.10;99.90;;;;;;5049528;28;20484;-73
2023/05/03 09:11:28;;;;;;;8.38;2.33;;;13.10;99.90;;;;;;5061031;28;20068;-73
2023/05/03 09:14:12;;;;;;;7.63;2.15;;;13.10;99.90;;;;;;5085417;28;20502;-73
2023/05/03 09:16:39;;;;;;;5.97;2.20;;;13.10;99.70;;;;;;5085952;28;20043;-73
2023/05/03 09:19:11;;;;;;;6.85;2.20;;;13.20;99.90;;;;;;5069447;28;20044;-74
2023/05/03 09:21:41;;;;;;;6.03;2.25;;;13.40;99.90;;;;;;5089990;28;20047;-74
2023/05/03 09:24:14;;;;;;;14.77;2.97;;;13.50;99.90;;;;;;5094921;28;20135;-74
2023/05/03 09:26:41;;;;;;;6.40;2.42;;;13.70;99.80;;;;;;5070614;28;20145;-74
2023/05/03 09:29:07;;;;;;;12.07;2.88;;;13.90;99.90;;;;;;5068832;28;20049;-74
2023/05/03 09:31:33;;;;;;;6.82;2.60;;;14.10;99.90;;;;;;5056337;28;20040;-74
2023/05/03 09:34:00;;;;;;;7.03;2.53;;;14.20;99.60;;;;;;5073004;28;20035;-74
2023/05/03 09:36:28;;;;;;;28.52;4.75;;;14.30;99.00;;;;;;5090353;28;20392;-74
2023/05/03 09:38:54;;;;;;;7.10;2.65;;;14.40;98.60;;;;;;5068031;28;20115;-74
2023/05/03 09:41:27;;;;;;;5.82;2.30;;;14.50;98.40;;;;;;5073758;28;20411;-74
2023/05/03 09:43:55;;;;;;;6.15;2.47;;;14.60;97.20;;;;;;5054877;28;20399;-74
2023/05/03 09:46:23;;;;;;;5.30;2.30;;;14.50;96.80;;;;;;5068200;28;20036;-74
2023/05/03 09:48:49;;;;;;;4.35;2.15;;;14.20;97.10;;;;;;5056045;28;20028;-74
2023/05/03 09:51:15;;;;;;;4.35;2.10;;;14.10;97.30;;;;;;5069739;28;20885;-74
2023/05/03 09:53:41;;;;;;;3.85;1.98;;;14.10;97.10;;;;;;5087297;28;20496;-74
2023/05/03 09:56:11;;;;;;;6.57;2.70;;;14.20;96.90;;;;;;5091829;28;20036;-74
2023/05/03 09:58:38;;;;;;;7.10;2.60;;;14.50;97.60;;;;;;5071298;28;20040;-74
2023/05/03 10:01:04;;;;;;;8.60;2.72;;;14.80;97.00;;;;;;5072882;28;20333;-74
2023/05/03 10:03:33;;;;;;;7.13;2.40;;;15.00;97.00;;;;;;5073645;28;20483;-74
2023/05/03 10:06:02;;;;;;;6.43;2.50;;;15.20;96.60;;;;;;5081684;28;20166;-74
2023/05/03 10:08:34;;;;;;;5.85;2.33;;;15.20;95.80;;;;;;5066380;28;20085;-74
2023/05/03 10:11:03;;;;;;;4.72;1.90;;;15.00;94.60;;;;;;5071480;28;20040;-74
2023/05/03 10:13:29;;;;;;;5.15;2.05;;;15.30;94.30;;;;;;5065398;28;20079;-74
2023/05/03 10:16:02;;;;;;;24.95;4.20;;;14.60;94.60;;;;;;5067388;28;20131;-74
2023/05/03 10:18:31;;;;;;;8.10;2.55;;;14.50;94.50;;;;;;5071336;28;20075;-74
2023/05/03 10:21:12;;;;;;;4.80;2.35;;;14.30;94.50;;;;;;5066096;28;20047;-74
2023/05/03 10:24:14;;;;;;;6.43;2.45;;;14.20;94.00;;;;;;5068324;28;20444;-74
2023/05/03 10:26:44;;;;;;;6.95;2.55;;;14.30;94.80;;;;;;5065650;28;20044;-74
2023/05/03 10:29:32;;;;;;;6.03;2.38;;;14.50;95.40;;;;;;5068597;28;20085;-74
2023/05/03 10:31:57;;;;;;;3.45;1.90;;;14.80;93.90;;;;;;5064337;28;20044;-74
2023/05/03 10:34:24;;;;;;;4.20;1.88;;;14.70;94.50;;;;;;5069180;28;20048;-73
2023/05/03 10:36:54;;;;;;;10.63;2.60;;;14.60;94.20;;;;;;5091438;28;20036;-73
2023/05/03 10:39:20;;;;;;;5.78;2.00;;;14.60;94.60;;;;;;5057729;28;20043;-73
2023/05/03 10:42:02;;;;;;;6.15;2.30;;;14.80;95.00;;;;;;5070889;28;20040;-73
2023/05/03 10:44:37;;;;;;;6.93;2.10;;;15.20;94.60;;;;;;5048995;28;20086;-74
2023/05/03 10:47:13;;;;;;;5.43;2.40;;;15.40;93.40;;;;;;5064431;28;20032;-75
2023/05/03 10:49:39;;;;;;;5.20;2.40;;;15.40;93.60;;;;;;5075854;28;20169;-74
2023/05/03 10:52:37;;;;;;;5.30;2.05;;;15.60;94.70;;;;;;5059694;28;20575;-73
2023/05/03 10:55:08;;;;;;;5.57;2.53;;;15.90;93.50;;;;;;5066745;28;20089;-73
2023/05/03 10:57:41;;;;;;;4.97;2.42;;;16.10;94.00;;;;;;5067093;28;20048;-73
2023/05/03 11:00:39;;;;;;;4.20;2.22;;;16.30;93.40;;;;;;5069719;28;20100;-79
2023/05/03 11:03:32;;;;;;;20.80;3.20;;;16.50;92.60;;;;;;5054266;28;20127;-74
2023/05/03 11:05:58;;;;;;;30.67;4.03;;;16.60;91.10;;;;;;5069571;28;20040;-74
2023/05/03 11:08:29;;;;;;;11.13;2.80;;;16.70;92.10;;;;;;5072673;28;20040;-74
2023/05/03 11:10:59;;;;;;;12.23;2.70;;;16.90;91.40;;;;;;5063786;28;20071;-74
2023/05/03 11:13:26;;;;;;;15.63;4.05;;;17.00;90.40;;;;;;5067507;28;20056;-74
2023/05/03 11:15:55;;;;;;;8.07;3.10;;;17.00;90.20;;;;;;5070508;28;20043;-74
2023/05/03 11:18:21;;;;;;;8.50;2.60;;;17.00;88.10;;;;;;5072411;28;20040;-74
2023/05/03 11:20:48;;;;;;;5.25;2.38;;;17.00;90.20;;;;;;5088685;28;20450;-74
2023/05/03 11:23:13;;;;;;;13.80;3.45;;;17.00;90.10;;;;;;5072369;28;20399;-74
2023/05/03 11:25:39;;;;;;;6.55;2.40;;;17.10;90.20;;;;;;5069023;28;20062;-74
2023/05/03 11:28:05;;;;;;;42.25;4.75;;;17.10;89.60;;;;;;5083007;28;20023;-74
2023/05/03 11:30:33;;;;;;;21.50;3.60;;;17.20;88.80;;;;;;5080644;28;20036;-74
2023/05/03 11:33:00;;;;;;;9.48;2.72;;;17.30;88.80;;;;;;5086747;28;20078;-76
2023/05/03 11:35:28;;;;;;;29.45;5.15;;;17.70;88.60;;;;;;5067264;28;20036;-74
2023/05/03 11:37:54;;;;;;;7.28;2.40;;;17.40;87.50;;;;;;5065530;28;20051;-74
2023/05/03 11:40:20;;;;;;;12.93;2.80;;;17.50;87.50;;;;;;5067455;28;20032;-74
2023/05/03 11:42:56;;;;;;;4.05;2.13;;;17.50;87.70;;;;;;5067794;28;20067;-74
2023/05/03 11:45:28;;;;;;;4.43;2.25;;;17.50;87.50;;;;;;5064862;28;20048;-74
2023/05/03 11:47:54;;;;;;;;;;;17.70;88.30;;;;;;5070041;28;20120;-74
2023/05/03 11:50:42;;;;;;;26.70;4.25;;;17.70;84.60;;;;;;5071770;28;19999;-74
2023/05/03 11:53:07;;;;;;;14.80;3.17;;;17.80;85.90;;;;;;5043284;28;20043;-75
2023/05/03 11:55:33;;;;;;;11.05;3.03;;;17.90;86.30;;;;;;5064973;28;20084;-75
2023/05/03 11:58:00;;;;;;;4.57;1.90;;;18.00;85.10;;;;;;5067387;28;21427;-75
2023/05/03 12:00:26;;;;;;;5.18;2.65;;;18.10;84.00;;;;;;5057838;28;20345;-74
2023/05/03 12:02:51;;;;;;;6.32;2.65;;;18.20;83.90;;;;;;5071024;28;20503;-74
2023/05/03 12:05:17;;;;;;;7.20;2.53;;;18.30;84.40;;;;;;5067629;28;20044;-74
2023/05/03 12:07:43;;;;;;;3.15;2.05;;;18.30;83.40;;;;;;5053267;28;20047;-75
2023/05/03 12:10:19;;;;;;;3.38;2.10;;;18.30;83.50;;;;;;5063748;28;20036;-74
2023/05/03 12:12:53;;;;;;;5.88;2.33;;;18.00;81.00;;;;;;5068703;28;20064;-74
2023/05/03 12:15:28;;;;;;;4.88;1.95;;;18.30;80.50;;;;;;5072015;28;20088;-75
2023/05/03 12:17:59;;;;;;;4.22;2.00;;;18.30;80.30;;;;;;5071233;28;20048;-75
2023/05/03 12:20:29;;;;;;;5.53;2.33;;;18.40;80.20;;;;;;5067738;28;20052;-76
2023/05/03 12:22:56;;;;;;;5.18;2.05;;;18.30;79.90;;;;;;5066948;28;20097;-76
2023/05/03 12:25:22;;;;;;;3.20;2.20;;;18.30;79.20;;;;;;5071246;28;20128;-75
2023/05/03 12:27:47;;;;;;;3.55;2.05;;;18.30;78.80;;;;;;5055671;28;20190;-75
2023/05/03 12:30:13;;;;;;;4.18;2.45;;;18.20;79.50;;;;;;5054598;28;20609;-75
2023/05/03 12:32:39;;;;;;;13.75;2.47;;;18.20;79.90;;;;;;5070044;28;20119;-75
2023/05/03 12:35:06;;;;;;;8.38;2.97;;;18.20;79.30;;;;;;5056099;28;20083;-75
2023/05/03 12:37:31;;;;;;;12.75;2.90;;;18.20;78.50;;;;;;5070872;28;20052;-75
2023/05/03 12:39:57;;;;;;;16.23;3.10;;;18.10;78.30;;;;;;5064763;28;20752;-75
2023/05/03 12:42:22;;;;;;;33.25;5.65;;;18.20;78.10;;;;;;5072250;28;20488;-75
2023/05/03 12:44:48;;;;;;;9.63;3.08;;;18.20;78.50;;;;;;5072423;28;20040;-75
2023/05/03 12:47:14;;;;;;;4.78;2.10;;;18.20;77.40;;;;;;5064564;28;20043;-75
2023/05/03 12:49:40;;;;;;;11.68;2.58;;;18.20;77.10;;;;;;5070753;28;20052;-75
2023/05/03 12:52:05;;;;;;;8.65;2.45;;;18.30;77.00;;;;;;5070060;28;20516;-75
2023/05/03 12:54:33;;;;;;;39.88;6.03;;;18.30;77.30;;;;;;5073237;28;20488;-75